Time;durP1;ratioP1;P1;durP2;ratioP2;P2;SDS_P1;SDS_P2;PMS_P1;PMS_P2;Temp;Humidity;BMP_temperature;BMP_pressure;BME280_temperature;BME280_humidity;BME280_pressure;Samples;Min_cycle;Max_cycle;Signal;HPM_P1;HPM_P2
2022/05/25 00:00:17;;;;;;;;;;;;;;;13.10;nan;100224.44;5060292;28;19970;-71
2022/05/25 00:02:44;;;;;;;;;;;;;;;13.10;nan;100223.59;5062729;28;19924;-71
2022/05/25 00:05:10;;;;;;;;;;;;;;;13.10;nan;100229.75;5055783;28;19967;-71
2022/05/25 00:07:36;;;;;;;;;;;;;;;13.09;nan;100232.59;5051113;28;19925;-71
2022/05/25 00:10:01;;;;;;;;;;;;;;;13.07;nan;100237.25;5057654;28;19975;-71
2022/05/25 00:12:27;;;;;;;;;;;;;;;13.05;nan;100236.59;5060048;28;20024;-71
2022/05/25 00:14:52;;;;;;;;;;;;;;;13.04;nan;100241.06;5058371;28;19936;-71
2022/05/25 00:17:18;;;;;;;;;;;;;;;13.03;nan;100242.06;5059078;28;19924;-71
2022/05/25 00:20:01;;;;;;;;;;;;;;;13.02;nan;100245.72;5072725;28;19927;-71
2022/05/25 00:22:28;;;;;;;;;;;;;;;12.99;nan;100242.56;5057373;28;19924;-71
2022/05/25 00:24:57;;;;;;;;;;;;;;;12.91;nan;100235.50;5054374;28;19920;-72
2022/05/25 00:27:22;;;;;;;;;;;;;;;12.87;nan;100231.53;5052542;28;19974;-72
2022/05/25 00:29:47;;;;;;;;;;;;;;;12.83;nan;100235.56;5052372;28;20327;-72
2022/05/25 00:32:13;;;;;;;;;;;;;;;12.80;nan;100231.41;5049623;28;20408;-72
2022/05/25 00:34:38;;;;;;;;;;;;;;;12.81;nan;100241.03;5049477;28;19931;-72
2022/05/25 00:37:03;;;;;;;;;;;;;;;12.84;nan;100240.66;5051673;28;19946;-72
2022/05/25 00:39:29;;;;;;;;;;;;;;;12.88;nan;100241.16;5050613;28;20370;-72
2022/05/25 00:41:55;;;;;;;;;;;;;;;12.89;nan;100243.63;5060281;28;19921;-72
2022/05/25 00:44:20;;;;;;;;;;;;;;;12.91;nan;100244.28;5055784;28;20023;-72
2022/05/25 00:46:46;;;;;;;;;;;;;;;12.93;nan;100236.97;5052948;28;20409;-72
2022/05/25 00:49:26;;;;;;;;;;;;;;;12.94;nan;100241.28;5061926;28;20392;-72
2022/05/25 00:51:54;;;;;;;;;;;;;;;12.93;nan;100239.63;5067410;28;19955;-72
2022/05/25 00:54:21;;;;;;;;;;;;;;;12.89;nan;100240.97;5050237;28;19928;-72
2022/05/25 00:56:48;;;;;;;;;;;;;;;12.90;nan;100239.16;5050531;28;19933;-72
2022/05/25 00:59:18;;;;;;;;;;;;;;;12.92;nan;100237.16;5051000;28;19944;-72
2022/05/25 01:01:44;;;;;;;;;;;;;;;12.93;nan;100234.31;5062106;28;19921;-72
2022/05/25 01:04:10;;;;;;;;;;;;;;;12.91;nan;100235.50;5071035;28;19916;-72
2022/05/25 01:06:44;;;;;;;;;;;;;;;12.89;nan;100240.97;5062519;28;19920;-72
2022/05/25 01:09:32;;;;;;;;;;;;;;;12.88;nan;100241.97;5066779;28;19932;-72
2022/05/25 01:11:58;;;;;;;;;;;;;;;12.93;nan;100252.06;5045101;28;19921;-72
2022/05/25 01:14:26;;;;;;;;;;;;;;;12.92;nan;100245.13;5055088;28;19921;-72
2022/05/25 01:17:03;;;;;;;;;;;;;;;12.91;nan;100252.25;5052560;28;20013;-72
2022/05/25 01:19:34;;;;;;;;;;;;;;;12.92;nan;100251.25;5061888;28;19916;-72
2022/05/25 01:22:06;;;;;;;;;;;;;;;12.95;nan;100252.72;5053915;28;19927;-72
2022/05/25 01:24:38;;;;;;;;;;;;;;;12.95;nan;100256.22;5048338;28;20399;-72
2022/05/25 01:27:06;;;;;;;;;;;;;;;12.99;nan;100266.47;5054410;28;19925;-72
2022/05/25 01:29:32;;;;;;;;;;;;;;;13.00;nan;100260.19;5055048;28;19921;-72
2022/05/25 01:32:06;;;;;;;;;;;;;;;13.01;nan;100261.81;5056381;28;19921;-72
2022/05/25 01:34:35;;;;;;;;;;;;;;;13.02;nan;100266.97;5047663;28;20297;-72
2022/05/25 01:37:05;;;;;;;;;;;;;;;13.03;nan;100268.59;5048423;28;19925;-72
2022/05/25 01:39:32;;;;;;;;;;;;;;;13.04;nan;100272.06;5051008;28;20429;-72
2022/05/25 01:42:00;;;;;;;;;;;;;;;13.04;nan;100272.06;5054850;28;19974;-72
2022/05/25 01:44:29;;;;;;;;;;;;;;;13.03;nan;100271.25;5061780;28;19940;-72
2022/05/25 01:46:56;;;;;;;;;;;;;;;13.03;nan;100270.44;5051845;28;19924;-72
2022/05/25 01:49:33;;;;;;;;;;;;;;;13.01;nan;100261.81;5053043;28;19921;-72
2022/05/25 01:52:04;;;;;;;;;;;;;;;13.00;nan;100271.63;5051825;28;19927;-72
2022/05/25 01:54:31;;;;;;;;;;;;;;;12.99;nan;100277.09;5053088;28;19931;-72
2022/05/25 01:56:59;;;;;;;;;;;;;;;12.97;nan;100277.28;5049207;28;19975;-72
2022/05/25 01:59:24;;;;;;;;;;;;;;;12.97;nan;100277.28;5049615;28;20373;-72
2022/05/25 02:04:44;;;;;;;;;;;;;;;12.93;nan;100275.97;5041871;28;19967;-72
2022/05/25 02:07:14;;;;;;;;;;;;;;;12.91;nan;100277.97;5044028;28;19920;-72
2022/05/25 02:09:58;;;;;;;;;;;;;;;12.89;nan;100286.06;5038622;28;19921;-72
2022/05/25 02:12:33;;;;;;;;;;;;;;;12.90;nan;100284.28;5044390;28;19928;-72
2022/05/25 02:15:10;;;;;;;;;;;;;;;12.90;nan;100292.25;5057446;28;19921;-72
2022/05/25 02:17:42;;;;;;;;;;;;;;;12.84;nan;100288.44;5069794;28;19924;-72
2022/05/25 02:20:09;;;;;;;;;;;;;;;12.80;nan;100289.78;5056617;28;19960;-72
2022/05/25 02:22:45;;;;;;;;;;;;;;;12.78;nan;100288.31;5060364;28;19921;-72
2022/05/25 02:25:25;;;;;;;;;;;;;;;12.76;nan;100283.16;5049573;28;19921;-72
2022/05/25 02:27:55;;;;;;;;;;;;;;;12.75;nan;100292.09;5045284;28;21346;-72
2022/05/25 02:30:23;;;;;;;;;;;;;;;12.73;nan;100297.59;5054015;28;19921;-72
2022/05/25 02:32:48;;;;;;;;;;;;;;;12.69;nan;100295.47;5050456;28;19929;-72
2022/05/25 02:35:14;;;;;;;;;;;;;;;12.66;nan;100298.47;5050860;28;19920;-72
2022/05/25 02:37:40;;;;;;;;;;;;;;;12.61;nan;100298.97;5048943;28;19925;-72
2022/05/25 02:40:07;;;;;;;;;;;;;;;12.54;nan;100306.78;5049732;28;20032;-72
2022/05/25 02:42:32;;;;;;;;;;;;;;;12.51;nan;100306.28;5047123;28;19921;-72
2022/05/25 02:44:58;;;;;;;;;;;;;;;12.47;nan;100308.47;5067066;28;19928;-72
2022/05/25 02:47:23;;;;;;;;;;;;;;;12.43;nan;100317.75;5065437;28;19931;-72
2022/05/25 02:49:48;;;;;;;;;;;;;;;12.40;nan;100319.91;5067667;28;20396;-72
2022/05/25 02:52:14;;;;;;;;;;;;;;;12.32;nan;100315.44;5057458;28;20019;-72
2022/05/25 02:54:39;;;;;;;;;;;;;;;12.26;nan;100318.78;5049128;28;20010;-72
2022/05/25 02:57:06;;;;;;;;;;;;;;;12.18;nan;100311.66;5047208;28;19929;-72
2022/05/25 02:59:31;;;;;;;;;;;;;;;12.10;nan;100325.72;5051979;28;19929;-72
2022/05/25 03:01:57;;;;;;;;;;;;;;;12.04;nan;100326.41;5061749;28;19935;-72
2022/05/25 03:04:22;;;;;;;;;;;;;;;11.99;nan;100326.09;5047704;28;19955;-72
2022/05/25 03:06:47;;;;;;;;;;;;;;;11.94;nan;100324.91;5049311;28;20453;-72
2022/05/25 03:09:13;;;;;;;;;;;;;;;11.90;nan;100329.72;5052838;28;19956;-72
2022/05/25 03:11:38;;;;;;;;;;;;;;;11.86;nan;100342.44;5047803;28;20356;-72
2022/05/25 03:14:03;;;;;;;;;;;;;;;11.85;nan;100345.25;5051009;28;20410;-72
2022/05/25 03:16:30;;;;;;;;;;;;;;;11.84;nan;100339.09;5053346;28;19927;-72
2022/05/25 03:18:57;;;;;;;;;;;;;;;11.81;nan;100338.63;5053525;28;20389;-72
2022/05/25 03:21:22;;;;;;;;;;;;;;;11.77;nan;100337.28;5058247;28;19924;-72
2022/05/25 03:23:47;;;;;;;;;;;;;;;11.75;nan;100340.13;5049482;28;19974;-72
2022/05/25 03:26:12;;;;;;;;;;;;;;;11.70;nan;100339.75;5047893;28;19920;-72
2022/05/25 03:28:38;;;;;;;;;;;;;;;11.62;nan;100342.41;5053547;28;20389;-72
2022/05/25 03:31:04;;;;;;;;;;;;;;;11.53;nan;100340.72;5050630;28;19925;-72
2022/05/25 03:33:30;;;;;;;;;;;;;;;11.45;nan;100349.50;5047106;28;19970;-72
2022/05/25 03:35:55;;;;;;;;;;;;;;;11.41;nan;100356.09;5045472;28;19929;-72
2022/05/25 03:38:20;;;;;;;;;;;;;;;11.34;nan;100355.91;5050035;28;19924;-72
2022/05/25 03:40:46;;;;;;;;;;;;;;;11.29;nan;100344.16;5052412;28;19952;-72
2022/05/25 03:43:14;;;;;;;;;;;;;;;11.24;nan;100357.88;5056622;28;19924;-72
2022/05/25 03:45:40;;;;;;;;;;;;;;;11.17;nan;100348.91;5050797;28;20350;-72
2022/05/25 03:48:07;;;;;;;;;;;;;;;11.15;nan;100353.53;5052029;28;20409;-72
2022/05/25 03:50:33;;;;;;;;;;;;;;;11.11;nan;100355.69;5061088;28;19920;-72
2022/05/25 03:52:58;;;;;;;;;;;;;;;11.08;nan;100357.78;5068643;28;20435;-72
2022/05/25 03:55:23;;;;;;;;;;;;;;;11.05;nan;100354.47;5056681;28;19920;-72
2022/05/25 03:57:48;;;;;;;;;;;;;;;11.05;nan;100357.13;5054620;28;19928;-72
2022/05/25 04:00:14;;;;;;;;;;;;;;;11.07;nan;100367.56;5062751;28;19917;-72
2022/05/25 04:02:39;;;;;;;;;;;;;;;11.08;nan;100363.91;5052390;28;20301;-72
2022/05/25 04:05:07;;;;;;;;;;;;;;;11.05;nan;100365.06;5056394;28;19925;-71
2022/05/25 04:07:45;;;;;;;;;;;;;;;11.02;nan;100364.56;5056402;28;19927;-72
2022/05/25 04:10:13;;;;;;;;;;;;;;;10.98;nan;100379.09;5059023;28;20011;-72
2022/05/25 04:12:39;;;;;;;;;;;;;;;10.93;nan;100382.19;5053579;28;20278;-72
2022/05/25 04:15:04;;;;;;;;;;;;;;;10.90;nan;100373.78;5054612;28;19928;-72
2022/05/25 04:17:31;;;;;;;;;;;;;;;10.87;nan;100376.72;5053470;28;20385;-72
2022/05/25 04:19:56;;;;;;;;;;;;;;;10.84;nan;100376.06;5055569;28;19990;-72
2022/05/25 04:22:22;;;;;;;;;;;;;;;10.83;nan;100378.84;5057533;28;19924;-72
2022/05/25 04:24:47;;;;;;;;;;;;;;;10.81;nan;100378.19;5062727;28;19967;-72
2022/05/25 04:27:12;;;;;;;;;;;;;;;10.80;nan;100381.81;5052668;28;20405;-72
2022/05/25 04:29:38;;;;;;;;;;;;;;;10.79;nan;100391.53;5052097;28;19974;-72
2022/05/25 04:32:04;;;;;;;;;;;;;;;10.79;nan;100386.25;5051046;28;19970;-72
2022/05/25 04:34:29;;;;;;;;;;;;;;;10.83;nan;100392.06;5053669;28;19925;-72
2022/05/25 04:36:54;;;;;;;;;;;;;;;10.86;nan;100398.88;5050707;28;20384;-72
2022/05/25 04:39:19;;;;;;;;;;;;;;;10.88;nan;100392.44;5051404;28;19920;-72
2022/05/25 04:41:44;;;;;;;;;;;;;;;10.94;nan;100389.16;5054446;28;19924;-72
2022/05/25 04:44:10;;;;;;;;;;;;;;;11.04;nan;100391.69;5054569;28;20302;-72
2022/05/25 04:46:35;;;;;;;;;;;;;;;11.12;nan;100390.91;5053601;28;19928;-72
2022/05/25 04:49:00;;;;;;;;;;;;;;;11.19;nan;100392.75;5051789;28;20438;-72
2022/05/25 04:51:26;;;;;;;;;;;;;;;11.26;nan;100388.47;5065390;28;19950;-72
2022/05/25 04:53:51;;;;;;;;;;;;;;;11.37;nan;100397.09;5063589;28;19931;-72
2022/05/25 04:59:01;;;;;;;;;;;;;;;11.55;nan;100405.78;5049735;28;19943;-72
2022/05/25 05:01:26;;;;;;;;;;;;;;;11.62;nan;100409.44;5051639;28;20015;-72
2022/05/25 05:03:51;;;;;;;;;;;;;;;11.72;nan;100419.06;5054683;28;20416;-72
2022/05/25 05:06:16;;;;;;;;;;;;;;;11.80;nan;100427.06;5052449;28;19942;-72
2022/05/25 05:08:42;;;;;;;;;;;;;;;11.87;nan;100436.03;5053816;28;19928;-72
2022/05/25 05:11:09;;;;;;;;;;;;;;;11.99;nan;100442.69;5052249;28;19924;-72
2022/05/25 05:13:35;;;;;;;;;;;;;;;12.07;nan;100442.69;5051407;28;19929;-72
2022/05/25 05:16:03;;;;;;;;;;;;;;;12.16;nan;100440.88;5051111;28;20374;-72
2022/05/25 05:18:28;;;;;;;;;;;;;;;12.26;nan;100451.34;5054061;28;19928;-73
2022/05/25 05:20:53;;;;;;;;;;;;;;;12.35;nan;100452.16;5054437;28;19920;-72
2022/05/25 05:23:18;;;;;;;;;;;;;;;12.46;nan;100459.78;5069371;28;20388;-72
2022/05/25 05:25:43;;;;;;;;;;;;;;;12.59;nan;100473.38;5056438;28;19927;-72
2022/05/25 05:28:10;;;;;;;;;;;;;;;12.75;nan;100467.22;5055499;28;19921;-72
2022/05/25 05:30:38;;;;;;;;;;;;;;;12.92;nan;100470.72;5050463;28;19924;-72
2022/05/25 05:33:03;;;;;;;;;;;;;;;13.07;nan;100471.66;5052122;28;20330;-72
2022/05/25 05:35:29;;;;;;;;;;;;;;;13.29;nan;100474.63;5054397;28;19994;-73
2022/05/25 05:37:55;;;;;;;;;;;;;;;13.53;nan;100473.72;5053224;28;20179;-73
2022/05/25 05:40:21;;;;;;;;;;;;;;;13.87;nan;100477.88;5054562;28;20385;-73
2022/05/25 05:42:48;;;;;;;;;;;;;;;14.39;nan;100472.69;5054675;28;19920;-73
2022/05/25 05:45:21;;;;;;;;;;;;;;;14.93;nan;100477.09;5056272;28;20385;-73
2022/05/25 05:47:51;;;;;;;;;;;;;;;15.49;nan;100474.84;5053694;28;19929;-73
2022/05/25 05:50:18;;;;;;;;;;;;;;;16.00;nan;100474.03;5055315;28;19924;-73
2022/05/25 05:52:44;;;;;;;;;;;;;;;16.35;nan;100480.34;5062160;28;19935;-73
2022/05/25 05:55:09;;;;;;;;;;;;;;;16.63;nan;100486.75;5060192;28;19980;-73
2022/05/25 05:57:36;;;;;;;;;;;;;;;16.93;nan;100490.09;5050444;28;20012;-73
2022/05/25 06:00:01;;;;;;;;;;;;;;;17.36;nan;100495.31;5048424;28;19927;-73
2022/05/25 06:02:27;;;;;;;;;;;;;;;17.66;nan;100500.38;5048522;28;19999;-73
2022/05/25 06:04:52;;;;;;;;;;;;;;;17.91;nan;100503.41;5051296;28;19921;-73
2022/05/25 06:07:17;;;;;;;;;;;;;;;18.07;nan;100505.72;5050424;28;20000;-73
2022/05/25 06:09:42;;;;;;;;;;;;;;;18.27;nan;100510.31;5053088;28;19920;-73
2022/05/25 06:12:08;;;;;;;;;;;;;;;18.53;nan;100514.88;5051677;28;20074;-73
2022/05/25 06:14:33;;;;;;;;;;;;;;;18.80;nan;100515.75;5053747;28;20348;-73
2022/05/25 06:19:42;;;;;;;;;;;;;;;19.29;nan;100511.78;5053726;28;20339;-74
2022/05/25 06:22:08;;;;;;;;;;;;;;;19.57;nan;100514.19;5060746;28;19920;-74
2022/05/25 06:24:38;;;;;;;;;;;;;;;19.75;nan;100505.47;5068906;28;20047;-73
2022/05/25 06:27:04;;;;;;;;;;;;;;;20.08;nan;100517.94;5051244;28;19950;-74
2022/05/25 06:29:29;;;;;;;;;;;;;;;20.41;nan;100520.41;5051304;28;19921;-74
2022/05/25 06:31:54;;;;;;;;;;;;;;;20.75;nan;100521.03;5053328;28;20443;-73
2022/05/25 06:34:20;;;;;;;;;;;;;;;21.03;nan;100534.03;5054445;28;19929;-73
2022/05/25 06:36:47;;;;;;;;;;;;;;;21.21;nan;100531.38;5052027;28;20039;-73
2022/05/25 06:39:12;;;;;;;;;;;;;;;21.39;nan;100527.91;5051803;28;19928;-73
2022/05/25 06:41:37;;;;;;;;;;;;;;;21.51;nan;100533.38;5053463;28;20344;-73
2022/05/25 06:44:03;;;;;;;;;;;;;;;21.65;nan;100538.63;5048978;28;19933;-73
2022/05/25 06:46:28;;;;;;;;;;;;;;;21.87;nan;100541.66;5058035;28;20019;-73
2022/05/25 06:48:54;;;;;;;;;;;;;;;21.90;nan;100533.13;5058886;28;19939;-73
2022/05/25 06:51:25;;;;;;;;;;;;;;;22.11;nan;100535.34;5056085;28;19973;-73
2022/05/25 06:53:50;;;;;;;;;;;;;;;22.23;nan;100538.09;5053147;28;19928;-73
2022/05/25 06:56:16;;;;;;;;;;;;;;;22.36;nan;100535.25;5051481;28;19921;-73
2022/05/25 06:58:43;;;;;;;;;;;;;;;22.31;nan;100553.97;5053512;28;19921;-73
2022/05/25 07:01:08;;;;;;;;;;;;;;;22.50;nan;100556.59;5047521;28;19924;-73
2022/05/25 07:03:33;;;;;;;;;;;;;;;22.84;nan;100552.34;5054512;28;20353;-73
2022/05/25 07:06:01;;;;;;;;;;;;;;;23.04;nan;100563.63;5053529;28;20449;-73
2022/05/25 07:08:27;;;;;;;;;;;;;;;23.27;nan;100564.72;5057971;28;19921;-73
2022/05/25 07:10:52;;;;;;;;;;;;;;;23.35;nan;100567.03;5054237;28;19927;-73
2022/05/25 07:13:17;;;;;;;;;;;;;;;23.49;nan;100564.94;5049181;28;20381;-73
2022/05/25 07:15:43;;;;;;;;;;;;;;;23.76;nan;100562.56;5060225;28;20266;-73
2022/05/25 07:18:08;;;;;;;;;;;;;;;23.67;nan;100572.06;5054419;28;19925;-71
2022/05/25 07:20:34;;;;;;;;;;;;;;;23.59;nan;100570.53;5052880;28;19921;-73
2022/05/25 07:22:59;;;;;;;;;;;;;;;23.91;nan;100568.28;5066875;28;19920;-74
2022/05/25 07:25:25;;;;;;;;;;;;;;;24.05;nan;100563.44;5063752;28;19924;-73
2022/05/25 07:27:50;;;;;;;;;;;;;;;24.18;nan;100559.63;5058621;28;20297;-74
2022/05/25 07:30:16;;;;;;;;;;;;;;;24.26;nan;100566.50;5051034;28;19921;-73
2022/05/25 07:32:42;;;;;;;;;;;;;;;24.58;nan;100569.56;5054473;28;19929;-73
2022/05/25 07:35:07;;;;;;;;;;;;;;;24.71;nan;100563.84;5055362;28;20011;-73
2022/05/25 07:37:37;;;;;;;;;;;;;;;24.81;nan;100563.19;5054664;28;19991;-73
2022/05/25 07:40:25;;;;;;;;;;;;;;;25.32;nan;100572.13;5055255;28;19943;-74
2022/05/25 07:42:55;;;;;;;;;;;;;;;25.42;nan;100574.16;5047245;28;19921;-74
2022/05/25 07:45:21;;;;;;;;;;;;;;;25.62;nan;100571.75;5059274;28;19924;-73
2022/05/25 07:47:46;;;;;;;;;;;;;;;25.80;nan;100572.50;5051490;28;19921;-74
2022/05/25 07:50:11;;;;;;;;;;;;;;;25.62;nan;100563.63;5054346;28;19944;-73
2022/05/25 07:52:38;;;;;;;;;;;;;;;25.84;nan;100570.94;5065191;28;19962;-73
2022/05/25 07:55:05;;;;;;;;;;;;;;;25.80;nan;100570.63;5067913;28;19917;-73
2022/05/25 07:57:30;;;;;;;;;;;;;;;26.10;nan;100571.25;5054418;28;19998;-73
2022/05/25 07:59:56;;;;;;;;;;;;;;;26.51;nan;100574.41;5052015;28;19924;-73
2022/05/25 08:07:49;;;;;;;;;;;;;;;27.24;nan;100562.00;5056167;28;19927;-74
2022/05/25 08:10:16;;;;;;;;;;;;;;;27.18;nan;100562.22;5050246;28;19924;-74
2022/05/25 08:12:42;;;;;;;;;;;;;;;27.34;nan;100561.28;5071274;28;19916;-73
2022/05/25 08:15:09;;;;;;;;;;;;;;;27.41;nan;100561.03;5066459;28;19920;-74
2022/05/25 08:17:34;;;;;;;;;;;;;;;27.56;nan;100566.56;5055625;28;20071;-73
2022/05/25 08:20:00;;;;;;;;;;;;;;;27.82;nan;100566.69;5054871;28;19946;-73
2022/05/25 08:22:25;;;;;;;;;;;;;;;27.95;nan;100569.72;5055341;28;20274;-74
2022/05/25 08:24:50;;;;;;;;;;;;;;;28.39;nan;100571.22;5059496;28;19974;-73
2022/05/25 08:27:15;;;;;;;;;;;;;;;29.17;nan;100564.72;5051172;28;19921;-73
2022/05/25 08:29:41;;;;;;;;;;;;;;;28.92;nan;100566.38;5062500;28;19987;-74
2022/05/25 08:32:06;;;;;;;;;;;;;;;28.02;nan;100555.09;5073352;28;19970;-73
2022/05/25 08:34:32;;;;;;;;;;;;;;;27.26;nan;100561.75;5052628;28;20416;-73
2022/05/25 08:36:57;;;;;;;;;;;;;;;27.47;nan;100570.84;5052282;28;19917;-71
2022/05/25 08:39:22;;;;;;;;;;;;;;;27.15;nan;100570.88;5067812;28;19927;-73
2022/05/25 08:41:50;;;;;;;;;;;;;;;26.59;nan;100561.22;5057741;28;19921;-73
2022/05/25 08:44:15;;;;;;;;;;;;;;;26.45;nan;100570.81;5051619;28;19925;-73
2022/05/25 08:46:40;;;;;;;;;;;;;;;26.20;nan;100565.97;5055078;28;19920;-73
2022/05/25 08:49:13;;;;;;;;;;;;;;;26.28;nan;100569.03;5056340;28;20047;-73
2022/05/25 08:51:44;;;;;;;;;;;;;;;27.22;nan;100558.75;5055934;28;19974;-73
2022/05/25 08:54:09;;;;;;;;;;;;;;;28.29;nan;100554.88;5055105;28;20380;-74
2022/05/25 08:56:45;;;;;;;;;;;;;;;28.45;nan;100555.72;5057141;28;19925;-73
2022/05/25 08:59:18;;;;;;;;;;;;;;;28.09;nan;100564.63;5055527;28;19921;-73
2022/05/25 09:01:47;;;;;;;;;;;;;;;27.92;nan;100564.84;5052223;28;20346;-72
2022/05/25 09:04:18;;;;;;;;;;;;;;;26.93;nan;100560.13;5065156;28;19923;-73
2022/05/25 09:06:49;;;;;;;;;;;;;;;26.16;nan;100560.22;5056931;28;19944;-73
2022/05/25 09:09:31;;;;;;;;;;;;;;;25.57;nan;100558.13;5052956;28;19921;-72
2022/05/25 09:12:00;;;;;;;;;;;;;;;24.82;nan;100567.53;5055572;28;20128;-72
2022/05/25 09:14:28;;;;;;;;;;;;;;;24.25;nan;100563.00;5057783;28;19933;-72
2022/05/25 09:16:55;;;;;;;;;;;;;;;25.60;nan;100571.19;5069180;28;19920;-72
2022/05/25 09:19:24;;;;;;;;;;;;;;;28.03;nan;100565.69;5073400;28;19916;-72
2022/05/25 09:21:49;;;;;;;;;;;;;;;29.05;nan;100564.19;5068561;28;19950;-72
2022/05/25 09:24:17;;;;;;;;;;;;;;;30.33;nan;100575.50;5051726;28;19924;-72
2022/05/25 09:26:42;;;;;;;;;;;;;;;31.08;nan;100577.09;5052862;28;19928;-72
2022/05/25 09:29:09;;;;;;;;;;;;;;;30.11;nan;100583.25;5053600;28;19921;-72
2022/05/25 09:31:40;;;;;;;;;;;;;;;28.64;nan;100583.25;5050834;28;19943;-73
2022/05/25 09:34:08;;;;;;;;;;;;;;;27.97;nan;100583.06;5051054;28;19936;-73
2022/05/25 09:36:38;;;;;;;;;;;;;;;26.38;nan;100579.16;5051913;28;19925;-72
2022/05/25 09:39:05;;;;;;;;;;;;;;;25.42;nan;100574.97;5065493;28;19920;-72
2022/05/25 09:41:31;;;;;;;;;;;;;;;24.85;nan;100571.66;5057830;28;19921;-72
2022/05/25 09:43:58;;;;;;;;;;;;;;;24.54;nan;100571.13;5054457;28;20428;-72
2022/05/25 09:46:27;;;;;;;;;;;;;;;24.02;nan;100576.59;5051475;28;20615;-72
2022/05/25 09:48:55;;;;;;;;;;;;;;;23.43;nan;100580.19;5047362;28;20390;-72
2022/05/25 09:51:35;;;;;;;;;;;;;;;23.02;nan;100578.41;5047021;28;19925;-72
2022/05/25 09:54:15;;;;;;;;;;;;;;;22.98;nan;100579.91;5056076;28;19928;-72
2022/05/25 09:56:53;;;;;;;;;;;;;;;24.61;nan;100581.78;5049980;28;19921;-72
2022/05/25 09:59:41;;;;;;;;;;;;;;;26.93;nan;100579.13;5052288;28;19935;-72
2022/05/25 10:02:19;;;;;;;;;;;;;;;27.02;nan;100575.69;5048729;28;20424;-72
2022/05/25 10:04:56;;;;;;;;;;;;;;;26.50;nan;100584.41;5059344;28;20003;-72
2022/05/25 10:07:21;;;;;;;;;;;;;;;26.12;nan;100579.94;5051606;28;19925;-72
2022/05/25 10:09:49;;;;;;;;;;;;;;;27.42;nan;100573.53;5057112;28;19974;-72
2022/05/25 10:12:22;;;;;;;;;;;;;;;29.32;nan;100578.34;5053209;28;19921;-72
2022/05/25 10:14:56;;;;;;;;;;;;;;;28.13;nan;100570.34;5058705;28;19924;-72
2022/05/25 10:17:30;;;;;;;;;;;;;;;27.01;nan;100576.78;5056661;28;19931;-72
2022/05/25 10:19:56;;;;;;;;;;;;;;;25.97;nan;100572.47;5046030;28;19921;-72
2022/05/25 10:22:33;;;;;;;;;;;;;;;25.38;nan;100579.25;5051361;28;20015;-73
2022/05/25 10:25:01;;;;;;;;;;;;;;;24.79;nan;100571.56;5047055;28;20015;-72
2022/05/25 10:27:46;;;;;;;;;;;;;;;27.16;nan;100570.63;5048775;28;20381;-72
2022/05/25 10:38:29;;;;;;;;;;;;;;;33.78;nan;100559.72;5053421;28;20400;-73
2022/05/25 10:40:56;;;;;;;;;;;;;;;33.91;nan;100560.81;5054000;28;19924;-73
2022/05/25 10:43:24;;;;;;;;;;;;;;;34.32;nan;100560.69;5053194;28;21277;-72
2022/05/25 10:45:52;;;;;;;;;;;;;;;35.30;nan;100557.16;5050813;28;20382;-72
2022/05/25 10:48:27;;;;;;;;;;;;;;;34.41;nan;100569.81;5065133;28;19952;-72
2022/05/25 10:50:55;;;;;;;;;;;;;;;34.07;nan;100559.34;5056065;28;20408;-72
2022/05/25 10:53:41;;;;;;;;;;;;;;;32.40;nan;100553.94;5054790;28;19933;-72
2022/05/25 10:56:21;;;;;;;;;;;;;;;32.09;nan;100560.69;5056382;28;20322;-72
2022/05/25 10:59:05;;;;;;;;;;;;;;;32.53;nan;100550.47;5055097;28;20408;-72
2022/05/25 11:01:43;;;;;;;;;;;;;;;33.14;nan;100557.66;5057254;28;19964;-72
2022/05/25 11:04:23;;;;;;;;;;;;;;;33.43;nan;100554.63;5056423;28;19943;-72
2022/05/25 11:06:54;;;;;;;;;;;;;;;33.70;nan;100549.44;5060842;28;19967;-72
2022/05/25 11:09:48;;;;;;;;;;;;;;;33.62;nan;100548.25;5050794;28;20459;-72
2022/05/25 11:12:20;;;;;;;;;;;;;;;34.30;nan;100554.75;5056700;28;19921;-72
2022/05/25 11:14:51;;;;;;;;;;;;;;;34.04;nan;100558.03;5053346;28;20011;-72
2022/05/25 11:17:32;;;;;;;;;;;;;;;32.17;nan;100550.97;5055139;28;19931;-72
2022/05/25 11:20:15;;;;;;;;;;;;;;;30.38;nan;100553.63;5046759;28;19921;-72
2022/05/25 11:22:57;;;;;;;;;;;;;;;29.39;nan;100546.16;5062281;28;20368;-72
2022/05/25 11:25:22;;;;;;;;;;;;;;;30.38;nan;100544.63;5063865;28;20349;-72
2022/05/25 11:27:50;;;;;;;;;;;;;;;32.78;nan;100541.84;5060505;28;19929;-72
2022/05/25 11:30:23;;;;;;;;;;;;;;;33.18;nan;100544.13;5051151;28;20463;-72
2022/05/25 11:33:00;;;;;;;;;;;;;;;34.24;nan;100548.53;5058822;28;19956;-72
2022/05/25 11:35:44;;;;;;;;;;;;;;;35.76;nan;100535.78;5067099;28;20012;-72
2022/05/25 11:38:21;;;;;;;;;;;;;;;33.84;nan;100545.56;5061863;28;19956;-72
2022/05/25 11:40:53;;;;;;;;;;;;;;;30.92;nan;100537.41;5053219;28;20157;-72
2022/05/25 11:43:37;;;;;;;;;;;;;;;30.24;nan;100539.78;5056714;28;19921;-72
2022/05/25 11:46:03;;;;;;;;;;;;;;;29.70;nan;100537.91;5049957;28;19960;-71
2022/05/25 11:48:31;;;;;;;;;;;;;;;29.42;nan;100539.34;5046439;28;19964;-72
2022/05/25 11:51:05;;;;;;;;;;;;;;;31.83;nan;100546.50;5052090;28;19920;-72
2022/05/25 11:53:40;;;;;;;;;;;;;;;33.82;nan;100533.28;5060150;28;19935;-71
2022/05/25 11:56:23;;;;;;;;;;;;;;;32.61;nan;100538.84;5059154;28;19943;-72
2022/05/25 11:58:58;;;;;;;;;;;;;;;30.42;nan;100546.53;5051783;28;20193;-72
2022/05/25 12:01:44;;;;;;;;;;;;;;;31.07;nan;100540.78;5069376;28;19921;-71
2022/05/25 12:04:16;;;;;;;;;;;;;;;30.68;nan;100538.13;5062643;28;20332;-72
2022/05/25 12:06:56;;;;;;;;;;;;;;;30.31;nan;100538.69;5056985;28;20121;-72
2022/05/25 12:09:35;;;;;;;;;;;;;;;31.09;nan;100532.31;5056059;28;20312;-71
2022/05/25 12:12:20;;;;;;;;;;;;;;;31.41;nan;100531.72;5056568;28;19931;-71
2022/05/25 12:14:57;;;;;;;;;;;;;;;29.60;nan;100533.31;5063006;28;20228;-72
2022/05/25 12:17:35;;;;;;;;;;;;;;;28.61;nan;100529.38;5059197;28;19924;-72
2022/05/25 12:20:02;;;;;;;;;;;;;;;29.26;nan;100524.94;5061417;28;20023;-72
2022/05/25 12:22:30;;;;;;;;;;;;;;;29.89;nan;100534.53;5062367;28;19921;-72
2022/05/25 12:24:57;;;;;;;;;;;;;;;29.75;nan;100532.44;5055254;28;19931;-72
2022/05/25 12:27:28;;;;;;;;;;;;;;;28.89;nan;100545.16;5060542;28;19988;-71
2022/05/25 12:29:55;;;;;;;;;;;;;;;28.27;nan;100538.84;5062617;28;19921;-72
2022/05/25 12:32:21;;;;;;;;;;;;;;;28.65;nan;100539.44;5061981;28;19920;-72
2022/05/25 12:34:48;;;;;;;;;;;;;;;28.68;nan;100532.66;5060792;28;20034;-72
2022/05/25 12:37:15;;;;;;;;;;;;;;;28.44;nan;100537.78;5058252;28;19928;-71
2022/05/25 12:39:46;;;;;;;;;;;;;;;27.88;nan;100533.81;5058755;28;19936;-72
2022/05/25 12:42:23;;;;;;;;;;;;;;;27.54;nan;100539.66;5053705;28;19927;-72
2022/05/25 12:50:33;;;;;;;;;;;;;;;27.14;nan;100542.91;5060731;28;19932;-71
2022/05/25 12:53:16;;;;;;;;;;;;;;;26.75;nan;100531.53;5050898;28;19925;-71
2022/05/25 12:55:41;;;;;;;;;;;;;;;26.48;nan;100535.03;5059053;28;20020;-73
2022/05/25 12:58:08;;;;;;;;;;;;;;;26.74;nan;100538.81;5062574;28;20373;-72
2022/05/25 13:00:39;;;;;;;;;;;;;;;27.07;nan;100534.19;5062694;28;19932;-71
2022/05/25 13:03:20;;;;;;;;;;;;;;;27.09;nan;100542.88;5057552;28;19982;-71
2022/05/25 13:05:56;;;;;;;;;;;;;;;26.87;nan;100541.13;5054433;28;19952;-71
2022/05/25 13:08:41;;;;;;;;;;;;;;;26.49;nan;100540.22;5052486;28;19928;-72
2022/05/25 13:11:06;;;;;;;;;;;;;;;26.46;nan;100540.75;5051642;28;19960;-72
2022/05/25 13:13:32;;;;;;;;;;;;;;;26.40;nan;100540.94;5053412;28;19979;-71
2022/05/25 13:15:57;;;;;;;;;;;;;;;26.28;nan;100535.69;5056244;28;19927;-71
2022/05/25 13:18:43;;;;;;;;;;;;;;;26.43;nan;100541.25;5056224;28;19921;-72
2022/05/25 13:21:08;;;;;;;;;;;;;;;26.62;nan;100539.00;5052458;28;19987;-72
2022/05/25 13:23:51;;;;;;;;;;;;;;;26.27;nan;100528.63;5055623;28;20201;-71
2022/05/25 13:26:29;;;;;;;;;;;;;;;25.94;nan;100535.88;5055491;28;20404;-71
2022/05/25 13:29:00;;;;;;;;;;;;;;;25.96;nan;100539.16;5051457;28;20519;-72
2022/05/25 13:31:58;;;;;;;;;;;;;;;26.04;nan;100543.28;5050992;28;19951;-71
2022/05/25 13:34:24;;;;;;;;;;;;;;;26.26;nan;100537.81;5051201;28;19929;-71